Time;durP1;ratioP1;P1;durP2;ratioP2;P2;SDS_P1;SDS_P2;PMS_P1;PMS_P2;Temp;Humidity;BMP_temperature;BMP_pressure;BME280_temperature;BME280_humidity;BME280_pressure;Samples;Min_cycle;Max_cycle;Signal;HPM_P1;HPM_P2
2021/11/20 00:00:35;;;;;;;50.33;32.38;;;25.50;99.90;;;;;;4212369;28;20047;-64
2021/11/20 00:02:41;;;;;;;52.17;36.17;;;25.50;99.90;;;;;;4210783;28;20044;-64
2021/11/20 00:04:46;;;;;;;77.35;50.70;;;25.60;99.90;;;;;;4210692;28;20077;-64
2021/11/20 00:06:53;;;;;;;77.70;49.83;;;25.60;99.90;;;;;;4209511;28;20076;-64
2021/11/20 00:08:58;;;;;;;80.45;50.05;;;25.60;99.90;;;;;;4212077;28;20097;-63
2021/11/20 00:11:05;;;;;;;72.43;45.85;;;25.60;99.90;;;;;;4212423;28;20139;-64
2021/11/20 00:13:10;;;;;;;77.95;46.33;;;25.60;99.90;;;;;;4211418;28;20135;-64
2021/11/20 00:15:21;;;;;;;66.07;43.58;;;25.60;99.90;;;;;;4209212;28;20044;-64
2021/11/20 00:17:26;;;;;;;54.38;40.03;;;25.70;99.90;;;;;;4202735;28;20056;-64
2021/11/20 00:19:32;;;;;;;60.70;37.30;;;25.70;99.90;;;;;;4210380;28;20071;-64
2021/11/20 00:21:45;;;;;;;54.67;36.08;;;25.70;99.90;;;;;;4194264;28;20510;-64
2021/11/20 00:23:53;;;;;;;45.28;32.47;;;25.80;99.90;;;;;;4227119;28;20047;-64
2021/11/20 00:25:59;;;;;;;45.38;30.90;;;25.90;99.90;;;;;;4226771;28;20043;-63
2021/11/20 00:28:04;;;;;;;47.83;34.60;;;25.90;99.90;;;;;;4228533;28;20059;-64
2021/11/20 00:32:18;;;;;;;47.42;36.05;;;25.90;99.90;;;;;;4208025;28;20544;-63
2021/11/20 00:34:25;;;;;;;53.70;32.90;;;26.00;99.90;;;;;;4226911;28;20047;-64
2021/11/20 00:36:30;;;;;;;42.40;27.52;;;26.00;99.90;;;;;;4226974;28;20078;-64
2021/11/20 00:38:35;;;;;;;42.75;28.95;;;26.00;99.90;;;;;;4226953;28;20421;-64
2021/11/20 01:33:11;;;;;;;28.10;16.88;;;26.30;99.90;;;;;;4172338;28;20498;-65
2021/11/20 01:35:18;;;;;;;31.42;22.10;;;26.70;99.90;;;;;;4161233;28;20099;-64
2021/11/20 01:37:33;;;;;;;28.10;22.48;;;26.70;99.90;;;;;;4166795;28;20057;-66
2021/11/20 01:39:45;;;;;;;39.08;18.67;;;26.80;99.90;;;;;;4162949;28;20059;-67
2021/11/20 01:42:08;;;;;;;31.85;16.73;;;26.90;99.90;;;;;;4162411;28;20105;-66
2021/11/20 01:44:44;;;;;;;21.42;14.52;;;26.90;99.90;;;;;;4162400;28;20503;-66
2021/11/20 01:46:57;;;;;;;17.92;12.07;;;27.00;99.80;;;;;;4163707;28;20499;-66
2021/11/20 01:49:17;;;;;;;18.80;12.07;;;27.10;99.20;;;;;;4167791;28;20538;-67
2021/11/20 01:51:43;;;;;;;20.65;12.07;;;27.20;99.00;;;;;;4167636;28;20072;-66
2021/11/20 01:54:13;;;;;;;17.05;10.88;;;27.20;98.80;;;;;;4166240;28;20048;-65
2021/11/20 01:56:59;;;;;;;25.25;13.57;;;27.30;98.80;;;;;;4162026;28;20049;-66
2021/11/20 01:59:38;;;;;;;16.42;11.48;;;27.30;98.40;;;;;;4170797;28;20068;-66
2021/11/20 02:02:12;;;;;;;23.60;14.48;;;27.40;98.50;;;;;;4171787;28;20041;-66
2021/11/20 02:04:41;;;;;;;22.20;11.73;;;27.50;97.60;;;;;;4168733;28;20053;-66
2021/11/20 02:07:09;;;;;;;18.13;9.07;;;27.50;97.80;;;;;;4158911;28;21249;-66
2021/11/20 02:38:47;;;;;;;14.82;7.97;;;27.80;96.10;;;;;;4216462;27;20465;-64
2021/11/20 02:40:54;;;;;;;15.23;8.05;;;28.10;96.10;;;;;;4215257;28;20429;-64
2021/11/20 02:42:59;;;;;;;10.27;6.70;;;28.10;96.00;;;;;;4217524;28;20572;-64
2021/11/20 02:45:26;;;;;;;10.60;5.90;;;28.20;95.80;;;;;;4212700;28;20051;-64
2021/11/20 02:47:37;;;;;;;9.85;6.88;;;28.40;95.00;;;;;;4213580;28;20051;-65
2021/11/20 02:49:44;;;;;;;11.75;6.95;;;28.40;95.30;;;;;;4213901;28;20099;-64
2021/11/20 02:51:56;;;;;;;14.98;6.55;;;28.30;95.30;;;;;;4217442;28;20044;-64
2021/11/20 02:54:22;;;;;;;11.32;5.85;;;28.40;94.90;;;;;;4219917;28;20301;-64
2021/11/20 02:56:40;;;;;;;12.98;6.65;;;28.40;95.00;;;;;;4223328;28;20040;-64
2021/11/20 02:58:47;;;;;;;8.70;5.80;;;28.50;95.10;;;;;;4221910;28;20097;-64
2021/11/20 03:01:00;;;;;;;9.30;5.95;;;28.60;94.60;;;;;;4223220;28;20598;-64
2021/11/20 03:15:14;;;;;;;10.93;6.63;;;28.70;94.30;;;;;;4203339;23;20517;31
2021/11/20 03:17:44;;;;;;;10.40;6.05;;;29.10;93.80;;;;;;4058070;29;20131;-64
2021/11/20 03:19:51;;;;;;;10.05;6.38;;;29.00;93.80;;;;;;4069120;29;20571;-64
2021/11/20 03:21:59;;;;;;;11.80;6.50;;;29.10;93.80;;;;;;4070378;29;20123;-64
2021/11/20 03:24:24;;;;;;;15.60;7.20;;;29.20;93.40;;;;;;4047964;29;20121;-64
2021/11/20 03:26:31;;;;;;;10.95;6.88;;;29.10;93.30;;;;;;4074790;29;20391;-64
2021/11/20 03:28:37;;;;;;;11.07;7.15;;;29.20;93.10;;;;;;4077149;29;20048;-64
2021/11/20 03:30:41;;;;;;;11.68;6.32;;;29.20;92.50;;;;;;4073494;29;20406;-64
2021/11/20 03:32:46;;;;;;;14.43;7.88;;;29.20;93.10;;;;;;4079938;29;20050;-64
2021/11/20 03:34:55;;;;;;;11.38;5.53;;;29.20;93.00;;;;;;4078461;29;20059;-64
2021/11/20 03:37:00;;;;;;;9.65;4.63;;;29.50;92.10;;;;;;4062734;29;20088;-64
2021/11/20 03:39:10;;;;;;;9.40;5.28;;;29.50;91.70;;;;;;4060448;29;20048;-64
2021/11/20 03:41:15;;;;;;;8.93;5.25;;;29.50;91.60;;;;;;4071388;29;20054;-64
2021/11/20 03:43:38;;;;;;;8.30;4.32;;;29.60;91.40;;;;;;4058377;29;20442;-64
2021/11/20 03:46:01;;;;;;;8.40;3.47;;;29.60;91.00;;;;;;4072729;29;20569;-64
2021/11/20 03:48:27;;;;;;;9.65;4.60;;;29.60;91.10;;;;;;4057220;29;20052;-64
2021/11/20 03:50:52;;;;;;;9.13;4.95;;;29.70;90.40;;;;;;4055895;29;20448;-64
2021/11/20 03:53:18;;;;;;;18.45;5.50;;;29.70;90.60;;;;;;4069268;28;20055;-65
2021/11/20 03:55:46;;;;;;;7.93;4.00;;;29.80;90.90;;;;;;4056003;29;20172;-64
2021/11/20 03:58:12;;;;;;;14.00;4.68;;;29.80;90.70;;;;;;4056658;29;20134;-64
2021/11/20 04:00:40;;;;;;;10.30;4.75;;;29.80;90.50;;;;;;4057062;28;20562;-65
2021/11/20 04:03:05;;;;;;;8.13;5.15;;;29.80;90.80;;;;;;4068962;28;20347;-64
2021/11/20 04:05:33;;;;;;;9.07;5.32;;;29.90;90.90;;;;;;4055958;29;20105;-64
2021/11/20 04:07:58;;;;;;;8.30;4.57;;;30.00;91.00;;;;;;4054316;29;20067;-64
2021/11/20 04:10:43;;;;;;;8.35;5.03;;;30.10;90.00;;;;;;4069200;28;20461;-65
2021/11/20 04:13:08;;;;;;;9.40;5.50;;;30.10;90.40;;;;;;4068620;28;20498;-65
2021/11/20 04:15:33;;;;;;;7.85;5.43;;;30.20;90.20;;;;;;4045150;29;20136;-65
2021/11/20 04:18:00;;;;;;;8.98;6.30;;;30.20;90.20;;;;;;4059078;29;20060;-64
2021/11/20 04:20:25;;;;;;;12.75;6.00;;;30.30;90.80;;;;;;4058448;29;20063;-64
2021/11/20 04:22:50;;;;;;;7.65;5.60;;;30.30;90.40;;;;;;4046542;29;20052;-64
2021/11/20 04:25:18;;;;;;;10.77;6.20;;;30.30;90.70;;;;;;4046556;29;20033;-65
2021/11/20 04:27:51;;;;;;;10.15;5.10;;;30.40;90.20;;;;;;4058826;29;20052;-64
2021/11/20 04:30:37;;;;;;;6.35;4.85;;;30.60;88.50;;;;;;4061356;28;20916;-65
2021/11/20 04:33:01;;;;;;;10.65;5.55;;;30.70;89.30;;;;;;4058099;29;20227;-64
2021/11/20 04:35:26;;;;;;;7.13;4.30;;;30.60;88.50;;;;;;4045870;29;20290;-65
2021/11/20 04:37:53;;;;;;;6.25;4.20;;;30.70;88.30;;;;;;4056895;29;20056;-64
2021/11/20 04:40:22;;;;;;;9.68;4.13;;;30.70;88.50;;;;;;4060071;29;20040;-64
2021/11/20 04:42:47;;;;;;;7.43;4.47;;;30.70;89.30;;;;;;4058512;29;20044;-64
2021/11/20 04:45:14;;;;;;;6.95;4.13;;;30.80;87.70;;;;;;4060938;29;20506;-64
2021/11/20 04:47:39;;;;;;;5.57;3.72;;;30.80;87.20;;;;;;4033568;29;20092;-64
2021/11/20 05:03:11;;;;;;;4.53;3.47;;;30.70;85.60;;;;;;4201179;27;20742;-64
2021/11/20 05:05:41;;;;;;;9.25;3.38;;;31.20;85.50;;;;;;4202626;28;20040;-64
2021/11/20 05:08:07;;;;;;;7.07;3.53;;;31.10;85.10;;;;;;4202520;28;20094;-64
2021/11/20 05:10:33;;;;;;;6.05;3.50;;;31.30;85.90;;;;;;4213910;27;20123;-64
2021/11/20 05:12:58;;;;;;;6.35;3.78;;;31.20;85.90;;;;;;4201740;28;20275;-64
2021/11/20 05:15:24;;;;;;;9.27;4.40;;;31.00;86.10;;;;;;4203067;28;20537;-64
2021/11/20 05:17:48;;;;;;;8.85;3.92;;;30.90;86.60;;;;;;4202004;28;20521;-64
2021/11/20 05:20:32;;;;;;;6.75;4.22;;;30.80;87.20;;;;;;4204160;28;20140;-64
2021/11/20 05:22:57;;;;;;;5.85;4.15;;;30.90;87.40;;;;;;4203464;28;20043;-64
2021/11/20 05:37:09;;;;;;;8.07;3.47;;;30.80;85.90;;;;;;4214687;27;20480;-71
2021/11/20 05:39:35;;;;;;;4.10;3.10;;;31.40;82.90;;;;;;4201426;28;20052;-72
2021/11/20 05:42:00;;;;;;;8.15;3.47;;;31.40;83.00;;;;;;4201443;28;20134;-72
2021/11/20 05:44:26;;;;;;;5.10;3.45;;;31.40;83.90;;;;;;4200580;28;20067;-73
2021/11/20 05:47:02;;;;;;;4.82;3.15;;;31.40;82.60;;;;;;4202372;28;20527;-73
2021/11/20 05:49:33;;;;;;;5.80;3.30;;;31.70;82.10;;;;;;4188591;28;20078;-73
2021/11/20 05:52:01;;;;;;;9.32;3.40;;;31.60;82.40;;;;;;4202850;28;20048;-73
2021/11/20 05:54:26;;;;;;;5.53;3.40;;;31.40;82.10;;;;;;4200414;28;20044;-73
2021/11/20 05:56:58;;;;;;;6.28;3.20;;;;;;;;;;4201118;28;20448;-73
2021/11/20 05:59:28;;;;;;;5.03;3.22;;;31.20;83.00;;;;;;4205052;28;20117;-73
2021/11/20 06:01:55;;;;;;;5.90;3.10;;;31.40;82.00;;;;;;4204764;28;20044;-73
2021/11/20 06:04:23;;;;;;;4.97;3.10;;;31.50;79.70;;;;;;4203153;28;20044;-73
2021/11/20 06:06:48;;;;;;;10.38;3.42;;;31.70;80.20;;;;;;4205320;28;20048;-73
2021/11/20 06:09:13;;;;;;;5.72;3.40;;;31.70;80.30;;;;;;4208718;28;20066;-72
2021/11/20 06:11:38;;;;;;;8.32;3.53;;;31.70;81.30;;;;;;4204825;28;20047;-72
2021/11/20 06:14:03;;;;;;;5.38;3.50;;;31.80;81.70;;;;;;4203555;28;20455;-72
2021/11/20 06:16:32;;;;;;;6.07;3.63;;;32.00;82.10;;;;;;4201018;28;20506;-73
2021/11/20 06:18:57;;;;;;;6.10;3.45;;;32.00;81.80;;;;;;4205552;28;20488;-72
2021/11/20 06:21:21;;;;;;;6.80;3.45;;;32.00;81.30;;;;;;4218082;28;20044;-73
2021/11/20 06:23:46;;;;;;;9.73;3.90;;;32.00;81.90;;;;;;4206114;28;20057;-73
2021/11/20 06:26:11;;;;;;;10.00;6.18;;;32.10;81.90;;;;;;4200158;28;20455;-73
2021/11/20 06:28:37;;;;;;;6.18;3.95;;;32.30;81.70;;;;;;4202257;28;20067;-73
2021/11/20 06:31:06;;;;;;;11.00;3.45;;;32.30;80.70;;;;;;4232481;27;20054;-73
2021/11/20 06:33:35;;;;;;;6.75;3.63;;;32.20;80.10;;;;;;4201698;28;20059;-73
2021/11/20 06:36:22;;;;;;;7.78;3.33;;;32.30;80.80;;;;;;4206620;28;20362;-73
2021/11/20 06:38:57;;;;;;;10.23;3.42;;;32.20;80.20;;;;;;4220152;27;20050;-73
2021/11/20 06:41:22;;;;;;;13.48;3.58;;;32.20;79.50;;;;;;4190773;28;20541;-72
2021/11/20 06:43:47;;;;;;;7.10;3.22;;;32.30;80.20;;;;;;4204083;28;20469;-72
2021/11/20 06:46:13;;;;;;;7.38;3.45;;;32.30;81.00;;;;;;4203761;28;20052;-72
2021/11/20 06:48:38;;;;;;;7.53;3.30;;;32.30;81.00;;;;;;4191633;28;20135;-72
2021/11/20 06:51:24;;;;;;;5.70;3.10;;;32.30;80.40;;;;;;4201439;28;20086;-72
2021/11/20 06:54:01;;;;;;;9.23;3.55;;;32.30;80.90;;;;;;4198532;28;20048;-72
2021/11/20 06:56:43;;;;;;;6.47;3.25;;;32.40;80.90;;;;;;4206176;28;20214;-72
2021/11/20 07:02:09;;;;;;;8.52;3.45;;;32.30;80.90;;;;;;4189332;28;20397;-73
2021/11/20 07:04:34;;;;;;;4.72;3.33;;;32.30;81.10;;;;;;4177064;28;20997;-72
2021/11/20 07:07:09;;;;;;;4.40;3.20;;;32.30;81.70;;;;;;4219518;27;20112;-73
2021/11/20 07:09:34;;;;;;;12.98;3.75;;;32.40;81.20;;;;;;4221465;27;20052;-73
2021/11/20 07:12:00;;;;;;;4.40;3.10;;;32.40;80.30;;;;;;4202165;28;20047;-73
2021/11/20 07:14:27;;;;;;;5.40;3.08;;;32.40;79.80;;;;;;4205549;27;20070;-73
2021/11/20 07:16:52;;;;;;;6.05;3.30;;;32.40;79.60;;;;;;4202985;28;20032;-73
2021/11/20 07:19:19;;;;;;;7.38;3.40;;;32.40;78.40;;;;;;4204388;28;20048;-73
2021/11/20 07:21:47;;;;;;;7.13;3.10;;;32.40;79.50;;;;;;4220498;27;20046;-73
2021/11/20 07:24:31;;;;;;;5.78;3.10;;;32.40;77.60;;;;;;4220610;27;20054;-73
2021/11/20 07:26:56;;;;;;;6.93;2.60;;;32.50;78.40;;;;;;4205372;28;20440;-72
2021/11/20 07:29:20;;;;;;;8.30;2.95;;;32.60;76.00;;;;;;4193380;27;20265;-73
2021/11/20 07:31:56;;;;;;;6.55;3.15;;;32.50;75.80;;;;;;4203139;27;20039;-72
2021/11/20 07:34:22;;;;;;;8.15;3.33;;;32.30;75.40;;;;;;4206774;27;20365;-73
2021/11/20 07:36:47;;;;;;;5.75;3.00;;;32.20;75.10;;;;;;4201964;28;20272;-72
2021/11/20 07:39:13;;;;;;;5.05;3.10;;;32.10;75.80;;;;;;4219224;27;20497;-73
2021/11/20 07:41:38;;;;;;;7.07;3.10;;;32.10;76.10;;;;;;4203540;28;20047;-72
2021/11/20 07:44:05;;;;;;;8.05;3.40;;;32.10;77.40;;;;;;4203547;27;20289;-73
2021/11/20 07:46:21;;;;;;;5.63;3.42;;;32.10;77.80;;;;;;4202488;28;20054;-73
2021/11/20 07:48:29;;;;;;;5.75;3.13;;;32.10;78.20;;;;;;4215621;27;20569;-72
2021/11/20 07:50:37;;;;;;;8.63;3.45;;;32.10;78.40;;;;;;4202270;28;20086;-73
2021/11/20 07:52:50;;;;;;;5.53;3.80;;;32.10;78.20;;;;;;4208568;28;20382;-72
2021/11/20 07:55:00;;;;;;;3.95;3.08;;;32.20;78.40;;;;;;4217253;27;20113;-73
2021/11/20 07:57:24;;;;;;;5.57;3.35;;;32.20;78.70;;;;;;4231000;27;20031;-73
2021/11/20 07:59:34;;;;;;;4.85;3.80;;;32.20;79.00;;;;;;4216783;28;20047;-73
2021/11/20 08:02:00;;;;;;;11.70;3.70;;;32.10;79.80;;;;;;4234318;27;20492;-73
2021/11/20 08:04:18;;;;;;;8.65;3.67;;;32.30;80.30;;;;;;4207415;28;20059;-72
2021/11/20 08:06:43;;;;;;;5.00;3.33;;;32.30;80.80;;;;;;4230769;27;20032;-73
2021/11/20 08:09:03;;;;;;;6.15;3.40;;;32.30;81.40;;;;;;4235959;27;20051;-73
2021/11/20 08:11:21;;;;;;;5.57;3.80;;;32.20;81.30;;;;;;4232360;27;20044;-72
2021/11/20 08:13:26;;;;;;;5.70;3.60;;;32.20;80.90;;;;;;4232705;27;20040;-72
2021/11/20 08:15:41;;;;;;;6.15;3.60;;;32.20;80.50;;;;;;4229824;27;20043;-73
2021/11/20 08:17:58;;;;;;;6.40;3.60;;;32.20;79.90;;;;;;4226170;28;20462;-73
2021/11/20 08:20:12;;;;;;;10.75;3.60;;;32.10;80.30;;;;;;4225112;27;20134;-73
2021/11/20 08:22:20;;;;;;;7.18;3.70;;;32.10;80.70;;;;;;4226144;27;20036;-75
2021/11/20 08:24:28;;;;;;;9.43;3.67;;;32.10;82.00;;;;;;4206839;28;20071;-73
2021/11/20 08:26:38;;;;;;;10.98;3.72;;;32.10;82.40;;;;;;4191048;28;20068;-73
2021/11/20 08:28:43;;;;;;;5.00;3.58;;;32.00;82.10;;;;;;4225387;28;20104;-73
2021/11/20 08:30:48;;;;;;;8.52;3.45;;;32.00;81.30;;;;;;4226388;27;20127;-73
2021/11/20 08:32:53;;;;;;;11.88;3.58;;;31.90;82.10;;;;;;4210489;28;20040;-74
2021/11/20 08:35:09;;;;;;;5.97;4.00;;;31.90;82.60;;;;;;4206506;28;20044;-73
2021/11/20 08:37:26;;;;;;;5.60;3.20;;;31.90;82.30;;;;;;4229948;27;20136;-74
2021/11/20 08:39:43;;;;;;;4.72;3.50;;;31.90;82.10;;;;;;4210223;28;20074;-73
2021/11/20 08:41:49;;;;;;;4.93;3.40;;;32.00;82.70;;;;;;4224798;28;20467;-73
2021/11/20 08:43:53;;;;;;;6.13;3.53;;;32.00;82.90;;;;;;4213260;28;20047;-74
2021/11/20 08:46:02;;;;;;;11.55;5.40;;;32.10;83.10;;;;;;4231517;27;20051;-73
2021/11/20 08:48:09;;;;;;;7.22;4.43;;;32.00;83.00;;;;;;4208180;28;20708;-73
2021/11/20 08:50:19;;;;;;;9.82;5.20;;;32.00;83.30;;;;;;4207667;28;20503;-73
2021/11/20 08:52:25;;;;;;;15.68;6.90;;;32.00;83.50;;;;;;4204411;28;20086;-72
2021/11/20 08:54:30;;;;;;;15.60;8.57;;;32.00;83.50;;;;;;4206875;28;20442;-73
2021/11/20 08:56:37;;;;;;;15.80;6.88;;;32.10;82.60;;;;;;4233626;27;20097;-72
2021/11/20 08:58:48;;;;;;;14.25;6.97;;;32.10;82.40;;;;;;4209526;28;20067;-73
2021/11/20 09:01:11;;;;;;;9.40;5.63;;;32.10;83.10;;;;;;4225285;28;20498;-73
2021/11/20 09:03:39;;;;;;;9.70;6.20;;;32.10;81.50;;;;;;4233455;27;20043;-73
2021/11/20 09:05:58;;;;;;;12.25;5.30;;;32.10;82.30;;;;;;4233900;27;20104;-73
2021/11/20 09:08:19;;;;;;;11.45;6.60;;;32.10;81.90;;;;;;4208039;28;20035;-73
2021/11/20 09:10:45;;;;;;;22.10;7.60;;;32.10;81.90;;;;;;4225098;28;20063;-73
2021/11/20 09:13:01;;;;;;;14.15;7.90;;;32.20;81.40;;;;;;4233266;27;20035;-73
2021/11/20 09:15:20;;;;;;;8.68;5.72;;;32.10;81.90;;;;;;4207980;28;20048;-73
2021/11/20 09:17:26;;;;;;;7.22;3.45;;;32.10;78.80;;;;;;4207415;28;20072;-73
2021/11/20 09:19:34;;;;;;;8.23;5.78;;;32.10;79.50;;;;;;4231371;27;20182;-73
2021/11/20 09:21:39;;;;;;;14.10;5.35;;;32.10;80.70;;;;;;4223025;28;20051;-73
2021/11/20 09:23:56;;;;;;;10.23;4.32;;;32.10;81.10;;;;;;4224406;28;20047;-73
2021/11/20 09:26:06;;;;;;;11.55;5.57;;;32.10;80.40;;;;;;4232857;28;20766;-73
2021/11/20 09:28:31;;;;;;;12.82;7.20;;;32.10;80.20;;;;;;4205288;28;20118;-73
2021/11/20 09:30:39;;;;;;;23.83;10.55;;;32.10;79.10;;;;;;4232904;27;20043;-72
2021/11/20 09:32:44;;;;;;;24.67;12.27;;;32.10;79.20;;;;;;4207359;28;20503;-74
2021/11/20 09:34:57;;;;;;;24.48;12.23;;;32.00;80.10;;;;;;4206086;28;20044;-73
2021/11/20 09:37:21;;;;;;;13.00;7.10;;;32.10;80.50;;;;;;4224647;28;20066;-73
2021/11/20 09:39:40;;;;;;;14.18;7.28;;;32.10;80.50;;;;;;4206624;28;20048;-73
2021/11/20 09:42:07;;;;;;;10.07;6.07;;;32.10;80.70;;;;;;4207672;28;20318;-73
2021/11/20 09:44:17;;;;;;;9.65;5.45;;;32.10;79.70;;;;;;4205987;28;20040;-74
2021/11/20 09:46:26;;;;;;;9.45;5.00;;;32.10;81.30;;;;;;4215033;28;20423;-73
2021/11/20 09:48:37;;;;;;;7.30;4.60;;;32.10;81.70;;;;;;4205432;28;20119;-73
2021/11/20 09:50:55;;;;;;;7.65;4.72;;;32.10;82.00;;;;;;4207471;28;20052;-73
2021/11/20 09:53:06;;;;;;;8.15;4.45;;;32.10;82.00;;;;;;4223771;28;20118;-74
2021/11/20 09:55:24;;;;;;;7.50;4.47;;;32.10;81.90;;;;;;4208897;28;20044;-73
2021/11/20 09:57:47;;;;;;;9.00;4.30;;;32.00;80.90;;;;;;4208537;28;20105;-73
2021/11/20 10:00:04;;;;;;;10.35;4.05;;;31.90;80.70;;;;;;4224471;28;20501;-73
2021/11/20 10:02:19;;;;;;;11.63;4.97;;;31.90;81.40;;;;;;4218431;28;20043;-73
2021/11/20 10:04:41;;;;;;;11.23;4.75;;;31.90;81.60;;;;;;4226281;28;20040;-73
2021/11/20 10:06:48;;;;;;;7.65;4.95;;;31.90;82.10;;;;;;4226430;28;20040;-74
2021/11/20 10:09:17;;;;;;;10.48;4.72;;;31.80;82.30;;;;;;4226173;28;20317;-73
2021/11/20 10:11:33;;;;;;;13.35;4.80;;;31.80;82.20;;;;;;4209072;28;20048;-74
2021/11/20 10:14:02;;;;;;;8.63;4.70;;;31.80;82.90;;;;;;4228672;28;20065;-73
2021/11/20 10:16:15;;;;;;;9.77;5.18;;;31.70;83.70;;;;;;4230933;27;20044;-73
2021/11/20 10:18:27;;;;;;;12.52;6.47;;;31.70;84.30;;;;;;4245881;27;20692;-74
2021/11/20 10:20:49;;;;;;;25.07;8.37;;;31.60;84.70;;;;;;4246171;27;20287;-73
2021/11/20 10:23:10;;;;;;;26.90;10.23;;;31.60;85.50;;;;;;4226006;27;20036;-73
2021/11/20 10:25:39;;;;;;;21.70;8.77;;;31.60;85.60;;;;;;4212299;28;20048;-73
2021/11/20 10:28:08;;;;;;;21.17;9.07;;;31.50;85.50;;;;;;4225587;28;20062;-73
2021/11/20 10:30:17;;;;;;;22.02;13.00;;;31.50;85.50;;;;;;4229388;28;20434;-73
2021/11/20 10:32:35;;;;;;;30.75;14.07;;;31.40;85.70;;;;;;4228966;28;20066;-73
2021/11/20 10:34:48;;;;;;;50.75;19.73;;;31.40;86.10;;;;;;4228235;28;20382;-73
2021/11/20 10:36:59;;;;;;;43.50;22.27;;;31.30;86.80;;;;;;4228915;28;20056;-73
2021/11/20 10:39:08;;;;;;;54.03;27.38;;;31.10;87.80;;;;;;4229063;28;20051;-73
2021/11/20 10:41:22;;;;;;;55.15;28.30;;;31.00;88.40;;;;;;4227619;28;20039;-72
2021/11/20 10:43:42;;;;;;;49.50;23.35;;;31.00;89.50;;;;;;4224888;28;20075;-73
2021/11/20 10:46:14;;;;;;;36.58;21.08;;;31.00;90.00;;;;;;4225342;28;20051;-73
2021/11/20 10:48:30;;;;;;;41.83;21.17;;;31.00;90.00;;;;;;4226879;28;20936;-73
2021/11/20 10:50:47;;;;;;;53.13;22.23;;;31.00;89.80;;;;;;4210823;28;20095;-73
2021/11/20 10:53:04;;;;;;;68.07;28.27;;;31.00;89.90;;;;;;4244510;27;20061;-72
2021/11/20 10:55:24;;;;;;;63.75;28.73;;;31.00;90.10;;;;;;4228708;28;20051;-73
2021/11/20 10:57:48;;;;;;;71.75;30.15;;;31.00;90.20;;;;;;4228910;28;20043;-72
2021/11/20 11:00:19;;;;;;;75.45;32.42;;;30.90;90.40;;;;;;4228661;28;20044;-73
2021/11/20 11:02:47;;;;;;;69.78;32.50;;;30.80;90.40;;;;;;4236704;27;20051;-72
2021/11/20 11:05:18;;;;;;;75.07;33.13;;;30.80;90.50;;;;;;4219000;28;20048;-72
2021/11/20 11:07:54;;;;;;;77.55;34.17;;;30.80;90.60;;;;;;4222501;28;20043;-72
2021/11/20 11:10:08;;;;;;;74.30;34.13;;;30.80;90.70;;;;;;4227286;28;20090;-72
2021/11/20 11:12:37;;;;;;;64.80;33.05;;;30.70;90.70;;;;;;4226069;28;20047;-72
2021/11/20 11:15:00;;;;;;;70.40;29.35;;;30.70;90.80;;;;;;4229797;27;20499;-70
2021/11/20 11:17:21;;;;;;;55.15;27.08;;;30.70;90.90;;;;;;4245971;27;20047;-75
2021/11/20 11:19:42;;;;;;;60.15;26.45;;;30.70;91.00;;;;;;4230427;27;20067;-73
2021/11/20 11:21:59;;;;;;;56.15;26.75;;;30.70;91.20;;;;;;4227908;28;20055;-72
2021/11/20 11:24:17;;;;;;;48.05;23.48;;;30.70;91.30;;;;;;4245426;27;20134;-72
2021/11/20 11:26:28;;;;;;;47.47;22.10;;;30.60;91.40;;;;;;4232125;27;20096;-72
2021/11/20 11:28:53;;;;;;;44.15;21.65;;;30.60;91.40;;;;;;4228395;28;20043;-71
2021/11/20 11:31:19;;;;;;;40.05;20.23;;;30.60;91.70;;;;;;4212563;28;20123;-72
2021/11/20 11:33:23;;;;;;;38.85;19.95;;;30.60;91.30;;;;;;4217995;28;20051;-72
2021/11/20 11:35:43;;;;;;;43.50;20.30;;;30.50;91.30;;;;;;4196690;28;20445;-73
2021/11/20 11:38:12;;;;;;;46.28;20.50;;;30.50;91.30;;;;;;4206447;27;20146;-72
2021/11/20 11:40:21;;;;;;;37.60;19.88;;;30.50;91.50;;;;;;4221817;27;20131;-72
2021/11/20 11:42:44;;;;;;;48.38;22.00;;;30.50;91.50;;;;;;4195296;28;20048;-72
2021/11/20 11:45:07;;;;;;;45.65;21.02;;;30.50;91.60;;;;;;4193132;28;20198;-71
2021/11/20 11:47:28;;;;;;;42.77;22.90;;;30.50;91.70;;;;;;4221718;28;20092;-72
2021/11/20 11:49:46;;;;;;;51.70;26.58;;;30.40;91.60;;;;;;4224068;27;20059;-72
2021/11/20 11:51:59;;;;;;;57.70;27.13;;;30.40;91.70;;;;;;4206095;27;20389;-72
2021/11/20 11:54:17;;;;;;;45.78;23.33;;;30.40;91.80;;;;;;4199990;28;20669;-71
2021/11/20 11:56:47;;;;;;;40.13;22.48;;;30.30;91.90;;;;;;4220262;28;20093;-72
2021/11/20 11:58:58;;;;;;;47.75;22.48;;;30.30;91.90;;;;;;4221218;27;20090;-72
2021/11/20 12:01:10;;;;;;;42.83;20.95;;;30.30;91.80;;;;;;4220941;28;20043;-72
2021/11/20 12:03:33;;;;;;;38.33;20.02;;;30.30;91.80;;;;;;4204392;28;20064;-71
2021/11/20 12:05:42;;;;;;;35.40;20.00;;;30.20;91.90;;;;;;4214108;28;20053;-71
2021/11/20 12:08:05;;;;;;;39.58;19.25;;;30.20;91.90;;;;;;4204471;28;20294;-71
2021/11/20 12:10:25;;;;;;;35.65;17.70;;;30.10;92.00;;;;;;4223247;28;20441;-72
2021/11/20 12:12:51;;;;;;;34.40;17.77;;;30.10;92.00;;;;;;4226934;27;20492;-72
2021/11/20 12:15:19;;;;;;;42.65;17.65;;;30.10;91.90;;;;;;4211511;28;20046;-71
2021/11/20 12:17:44;;;;;;;36.92;16.58;;;30.10;91.80;;;;;;4222509;28;20082;-72
2021/11/20 12:20:03;;;;;;;31.77;15.30;;;30.10;91.80;;;;;;4222995;28;20100;-71
2021/11/20 12:22:31;;;;;;;35.40;16.73;;;30.10;91.80;;;;;;4202237;28;20040;-72
2021/11/20 12:24:45;;;;;;;52.35;18.50;;;30.10;91.80;;;;;;4215709;28;20049;-71
2021/11/20 12:26:52;;;;;;;41.30;18.95;;;30.00;91.90;;;;;;4222224;28;20430;-71
2021/11/20 12:29:07;;;;;;;41.50;20.60;;;30.00;92.20;;;;;;4223263;28;20069;-72
2021/11/20 12:31:37;;;;;;;54.38;21.92;;;30.00;92.30;;;;;;4203175;28;20090;-72
2021/11/20 12:33:51;;;;;;;56.17;23.33;;;30.00;92.30;;;;;;4217771;28;20039;-71
2021/11/20 12:36:11;;;;;;;47.92;21.58;;;30.00;92.40;;;;;;4179305;28;20406;-71
2021/11/20 12:38:31;;;;;;;53.80;22.00;;;29.90;92.40;;;;;;4194474;28;20524;-71
2021/11/20 12:40:58;;;;;;;41.30;20.63;;;29.90;92.50;;;;;;4194107;28;20378;-72
2021/11/20 12:43:14;;;;;;;41.80;20.73;;;29.90;92.50;;;;;;4202015;28;21304;-72
2021/11/20 12:45:31;;;;;;;41.67;21.33;;;29.90;92.60;;;;;;4182626;28;20045;-72
2021/11/20 12:47:48;;;;;;;45.47;24.92;;;29.80;92.80;;;;;;4194680;28;20532;-72
2021/11/20 12:49:59;;;;;;;48.92;25.92;;;29.60;93.30;;;;;;4196223;28;20048;-72
2021/11/20 12:52:18;;;;;;;;;;;29.70;93.30;;;;;;4192709;28;20059;-73
2021/11/20 12:54:23;;;;;;;44.38;26.10;;;29.70;93.40;;;;;;4185970;28;19967;-72
2021/11/20 12:56:37;;;;;;;42.30;25.85;;;29.70;92.90;;;;;;4191878;28;20040;-72
2021/11/20 12:58:44;;;;;;;38.92;24.80;;;29.70;93.00;;;;;;4198348;28;20083;-72
2021/11/20 13:00:51;;;;;;;37.00;25.23;;;29.70;92.90;;;;;;4192291;28;20047;-72
2021/11/20 13:03:02;;;;;;;46.67;28.83;;;29.70;92.90;;;;;;4189672;28;20048;-72
2021/11/20 13:05:19;;;;;;;44.97;27.90;;;29.70;93.00;;;;;;4184787;28;20075;-71
2021/11/20 13:07:28;;;;;;;51.55;26.73;;;29.70;93.20;;;;;;4193974;28;20051;-72
2021/11/20 13:09:53;;;;;;;46.92;26.02;;;29.60;93.40;;;;;;4191767;28;21314;-71
2021/11/20 13:12:03;;;;;;;53.42;27.60;;;29.60;93.50;;;;;;4204611;28;20452;-71
2021/11/20 13:14:13;;;;;;;59.50;29.17;;;29.60;93.60;;;;;;4200268;28;20044;-71
2021/11/20 13:16:43;;;;;;;54.08;29.35;;;29.60;93.60;;;;;;4188048;28;20125;-72
2021/11/20 13:19:11;;;;;;;44.83;27.60;;;29.60;93.70;;;;;;4191089;28;20125;-71
2021/11/20 13:21:24;;;;;;;51.20;27.50;;;29.60;93.70;;;;;;4191358;28;20044;-71
2021/11/20 13:23:31;;;;;;;45.63;27.27;;;29.50;93.80;;;;;;4188422;28;20052;-71
2021/11/20 13:25:55;;;;;;;49.33;26.05;;;29.50;93.80;;;;;;4185140;28;20285;-71
2021/11/20 13:28:04;;;;;;;46.42;25.63;;;29.50;94.00;;;;;;4196268;28;20045;-71
2021/11/20 13:30:13;;;;;;;47.30;25.85;;;29.50;94.10;;;;;;4190457;28;20051;-71
2021/11/20 13:32:18;;;;;;;49.30;25.27;;;29.50;94.10;;;;;;4193208;28;20044;-72
2021/11/20 13:34:22;;;;;;;43.45;25.38;;;29.40;94.10;;;;;;4186151;28;20432;-71
2021/11/20 13:36:27;;;;;;;49.75;25.83;;;29.40;94.10;;;;;;4211512;28;20545;-72
2021/11/20 13:38:32;;;;;;;45.47;24.42;;;29.40;94.10;;;;;;4237006;28;20051;-71
2021/11/20 13:40:37;;;;;;;48.70;24.80;;;29.40;94.10;;;;;;4225005;28;20070;-72
2021/11/20 13:42:42;;;;;;;44.80;24.75;;;29.40;94.10;;;;;;4228437;28;20504;-71
2021/11/20 13:44:50;;;;;;;46.33;24.67;;;29.40;94.30;;;;;;4217501;28;20044;-70
2021/11/20 13:46:55;;;;;;;52.90;25.50;;;29.30;94.40;;;;;;4223488;28;20040;-72
2021/11/20 13:49:05;;;;;;;49.83;25.45;;;29.30;94.40;;;;;;4228270;28;20418;-72
2021/11/20 13:51:30;;;;;;;49.50;25.00;;;29.40;94.70;;;;;;4228063;28;20043;-71
2021/11/20 13:53:35;;;;;;;49.55;27.17;;;29.40;94.50;;;;;;4225724;27;20076;-71
2021/11/20 13:55:42;;;;;;;47.72;27.08;;;29.30;94.60;;;;;;4222082;28;20066;-71
2021/11/20 13:57:49;;;;;;;53.85;28.48;;;29.30;94.60;;;;;;4189698;28;20053;-72